sensor_id;sensor_type;location;lat;lon;timestamp;P1;durP1;ratioP1;P2;durP2;ratioP2
57443;SDS011;43289;52.962;6.196;2023-12-28T00:01:25;5.13;;;3.05;;
57443;SDS011;43289;52.962;6.196;2023-12-28T00:03:51;6.20;;;3.17;;
57443;SDS011;43289;52.962;6.196;2023-12-28T00:06:21;6.18;;;3.33;;
57443;SDS011;43289;52.962;6.196;2023-12-28T00:08:47;5.03;;;3.40;;
57443;SDS011;43289;52.962;6.196;2023-12-28T00:11:13;5.28;;;3.03;;
57443;SDS011;43289;52.962;6.196;2023-12-28T00:13:40;6.15;;;3.25;;
57443;SDS011;43289;52.962;6.196;2023-12-28T00:16:06;5.70;;;3.13;;
57443;SDS011;43289;52.962;6.196;2023-12-28T00:18:32;8.40;;;3.53;;
57443;SDS011;43289;52.962;6.196;2023-12-28T00:20:58;6.45;;;3.85;;
57443;SDS011;43289;52.962;6.196;2023-12-28T00:23:29;4.18;;;2.40;;
57443;SDS011;43289;52.962;6.196;2023-12-28T00:25:55;7.05;;;3.40;;
57443;SDS011;43289;52.962;6.196;2023-12-28T00:28:22;6.40;;;3.70;;
57443;SDS011;43289;52.962;6.196;2023-12-28T00:30:48;7.55;;;4.03;;
57443;SDS011;43289;52.962;6.196;2023-12-28T00:33:14;6.68;;;3.50;;
57443;SDS011;43289;52.962;6.196;2023-12-28T00:35:43;6.75;;;3.40;;
57443;SDS011;43289;52.962;6.196;2023-12-28T00:38:09;6.07;;;3.33;;
57443;SDS011;43289;52.962;6.196;2023-12-28T00:40:35;7.05;;;3.10;;
57443;SDS011;43289;52.962;6.196;2023-12-28T00:43:01;6.78;;;3.75;;
57443;SDS011;43289;52.962;6.196;2023-12-28T00:45:27;6.47;;;3.20;;
57443;SDS011;43289;52.962;6.196;2023-12-28T00:47:53;8.88;;;3.58;;
57443;SDS011;43289;52.962;6.196;2023-12-28T00:50:21;10.13;;;4.28;;
57443;SDS011;43289;52.962;6.196;2023-12-28T00:52:47;6.57;;;3.35;;
57443;SDS011;43289;52.962;6.196;2023-12-28T00:55:13;5.90;;;3.65;;
57443;SDS011;43289;52.962;6.196;2023-12-28T00:57:39;8.48;;;3.50;;
57443;SDS011;43289;52.962;6.196;2023-12-28T01:00:06;9.27;;;3.42;;
57443;SDS011;43289;52.962;6.196;2023-12-28T01:02:32;9.60;;;4.05;;
57443;SDS011;43289;52.962;6.196;2023-12-28T01:04:58;10.80;;;4.00;;
57443;SDS011;43289;52.962;6.196;2023-12-28T01:07:24;8.63;;;3.75;;
57443;SDS011;43289;52.962;6.196;2023-12-28T01:09:50;6.20;;;3.60;;
57443;SDS011;43289;52.962;6.196;2023-12-28T01:12:16;6.20;;;3.03;;
57443;SDS011;43289;52.962;6.196;2023-12-28T01:14:42;7.38;;;3.55;;
57443;SDS011;43289;52.962;6.196;2023-12-28T01:17:08;9.75;;;3.05;;
57443;SDS011;43289;52.962;6.196;2023-12-28T01:19:34;7.63;;;3.75;;
57443;SDS011;43289;52.962;6.196;2023-12-28T01:22:00;10.95;;;3.83;;
57443;SDS011;43289;52.962;6.196;2023-12-28T01:24:26;7.78;;;4.68;;
57443;SDS011;43289;52.962;6.196;2023-12-28T01:26:52;7.75;;;3.40;;
57443;SDS011;43289;52.962;6.196;2023-12-28T01:29:18;9.73;;;3.78;;
57443;SDS011;43289;52.962;6.196;2023-12-28T01:31:44;9.43;;;3.83;;
57443;SDS011;43289;52.962;6.196;2023-12-28T01:34:10;9.00;;;4.00;;
57443;SDS011;43289;52.962;6.196;2023-12-28T01:36:37;10.52;;;4.20;;
57443;SDS011;43289;52.962;6.196;2023-12-28T01:39:06;9.80;;;3.85;;
57443;SDS011;43289;52.962;6.196;2023-12-28T01:41:32;8.70;;;3.83;;
57443;SDS011;43289;52.962;6.196;2023-12-28T01:43:58;14.10;;;3.70;;
57443;SDS011;43289;52.962;6.196;2023-12-28T01:46:24;11.52;;;3.75;;
57443;SDS011;43289;52.962;6.196;2023-12-28T01:48:50;7.90;;;3.38;;
57443;SDS011;43289;52.962;6.196;2023-12-28T01:51:17;7.20;;;3.45;;
57443;SDS011;43289;52.962;6.196;2023-12-28T01:53:43;10.45;;;4.38;;
57443;SDS011;43289;52.962;6.196;2023-12-28T01:56:09;9.68;;;3.63;;
57443;SDS011;43289;52.962;6.196;2023-12-28T01:58:35;13.82;;;3.60;;
57443;SDS011;43289;52.962;6.196;2023-12-28T02:01:03;10.40;;;3.50;;
57443;SDS011;43289;52.962;6.196;2023-12-28T02:03:29;7.25;;;3.97;;
57443;SDS011;43289;52.962;6.196;2023-12-28T02:05:55;10.93;;;3.90;;
57443;SDS011;43289;52.962;6.196;2023-12-28T02:08:21;7.07;;;3.60;;
57443;SDS011;43289;52.962;6.196;2023-12-28T02:10:47;14.75;;;4.15;;
57443;SDS011;43289;52.962;6.196;2023-12-28T02:13:13;7.32;;;3.22;;
57443;SDS011;43289;52.962;6.196;2023-12-28T02:15:40;8.77;;;3.60;;
57443;SDS011;43289;52.962;6.196;2023-12-28T02:18:09;13.20;;;4.40;;
57443;SDS011;43289;52.962;6.196;2023-12-28T02:20:37;8.57;;;3.00;;
57443;SDS011;43289;52.962;6.196;2023-12-28T02:23:05;10.10;;;4.25;;
57443;SDS011;43289;52.962;6.196;2023-12-28T02:25:32;7.68;;;3.97;;
57443;SDS011;43289;52.962;6.196;2023-12-28T02:27:58;10.20;;;4.57;;
57443;SDS011;43289;52.962;6.196;2023-12-28T02:30:25;14.70;;;4.70;;
57443;SDS011;43289;52.962;6.196;2023-12-28T02:37:56;6.53;;;3.60;;
57443;SDS011;43289;52.962;6.196;2023-12-28T02:40:24;7.85;;;3.33;;
57443;SDS011;43289;52.962;6.196;2023-12-28T02:42:50;10.57;;;3.47;;
57443;SDS011;43289;52.962;6.196;2023-12-28T02:45:17;7.70;;;2.45;;
57443;SDS011;43289;52.962;6.196;2023-12-28T02:47:44;13.10;;;3.72;;
57443;SDS011;43289;52.962;6.196;2023-12-28T02:50:10;12.00;;;3.03;;
57443;SDS011;43289;52.962;6.196;2023-12-28T02:52:36;11.57;;;3.78;;
57443;SDS011;43289;52.962;6.196;2023-12-28T02:55:02;8.20;;;2.97;;
57443;SDS011;43289;52.962;6.196;2023-12-28T02:57:28;8.73;;;3.15;;
57443;SDS011;43289;52.962;6.196;2023-12-28T02:59:54;9.50;;;3.30;;
57443;SDS011;43289;52.962;6.196;2023-12-28T03:02:22;11.80;;;3.10;;
57443;SDS011;43289;52.962;6.196;2023-12-28T03:04:48;6.70;;;3.22;;
57443;SDS011;43289;52.962;6.196;2023-12-28T03:07:14;12.30;;;2.70;;
57443;SDS011;43289;52.962;6.196;2023-12-28T03:09:40;13.93;;;3.10;;
57443;SDS011;43289;52.962;6.196;2023-12-28T03:12:06;8.57;;;2.72;;
57443;SDS011;43289;52.962;6.196;2023-12-28T03:14:32;7.78;;;3.47;;
57443;SDS011;43289;52.962;6.196;2023-12-28T03:16:58;9.10;;;3.38;;
57443;SDS011;43289;52.962;6.196;2023-12-28T03:19:24;6.82;;;3.33;;
57443;SDS011;43289;52.962;6.196;2023-12-28T03:21:50;7.05;;;3.28;;
57443;SDS011;43289;52.962;6.196;2023-12-28T03:24:17;5.43;;;2.22;;
57443;SDS011;43289;52.962;6.196;2023-12-28T03:26:43;8.20;;;2.53;;
57443;SDS011;43289;52.962;6.196;2023-12-28T03:29:09;8.38;;;2.83;;
57443;SDS011;43289;52.962;6.196;2023-12-28T03:31:38;10.82;;;3.13;;
57443;SDS011;43289;52.962;6.196;2023-12-28T03:34:04;8.95;;;2.97;;
57443;SDS011;43289;52.962;6.196;2023-12-28T03:36:30;8.90;;;2.65;;
57443;SDS011;43289;52.962;6.196;2023-12-28T03:38:56;12.15;;;3.17;;
57443;SDS011;43289;52.962;6.196;2023-12-28T03:41:22;5.82;;;2.88;;
57443;SDS011;43289;52.962;6.196;2023-12-28T03:43:49;9.60;;;3.15;;
57443;SDS011;43289;52.962;6.196;2023-12-28T03:46:15;10.27;;;3.15;;
57443;SDS011;43289;52.962;6.196;2023-12-28T03:48:41;10.48;;;2.90;;
57443;SDS011;43289;52.962;6.196;2023-12-28T03:51:07;10.85;;;3.70;;
57443;SDS011;43289;52.962;6.196;2023-12-28T03:53:33;7.25;;;2.45;;
57443;SDS011;43289;52.962;6.196;2023-12-28T03:55:59;8.50;;;2.60;;
57443;SDS011;43289;52.962;6.196;2023-12-28T03:58:25;10.52;;;3.28;;
57443;SDS011;43289;52.962;6.196;2023-12-28T04:00:54;11.70;;;3.13;;
57443;SDS011;43289;52.962;6.196;2023-12-28T04:03:20;6.38;;;2.75;;
57443;SDS011;43289;52.962;6.196;2023-12-28T04:05:46;6.82;;;3.03;;
57443;SDS011;43289;52.962;6.196;2023-12-28T04:08:12;10.88;;;3.05;;
57443;SDS011;43289;52.962;6.196;2023-12-28T04:10:38;9.18;;;2.60;;
57443;SDS011;43289;52.962;6.196;2023-12-28T04:13:04;8.75;;;2.90;;
57443;SDS011;43289;52.962;6.196;2023-12-28T04:15:31;11.10;;;3.13;;
57443;SDS011;43289;52.962;6.196;2023-12-28T04:17:57;7.35;;;3.00;;
57443;SDS011;43289;52.962;6.196;2023-12-28T04:20:23;9.48;;;3.13;;
57443;SDS011;43289;52.962;6.196;2023-12-28T04:22:49;7.20;;;2.90;;
57443;SDS011;43289;52.962;6.196;2023-12-28T04:25:15;7.30;;;2.47;;
57443;SDS011;43289;52.962;6.196;2023-12-28T04:27:41;7.95;;;3.20;;
57443;SDS011;43289;52.962;6.196;2023-12-28T04:30:11;7.15;;;2.15;;
57443;SDS011;43289;52.962;6.196;2023-12-28T04:32:37;11.68;;;2.90;;
57443;SDS011;43289;52.962;6.196;2023-12-28T04:35:04;9.45;;;3.25;;
57443;SDS011;43289;52.962;6.196;2023-12-28T04:37:31;10.13;;;3.10;;
57443;SDS011;43289;52.962;6.196;2023-12-28T04:39:57;5.43;;;2.47;;
57443;SDS011;43289;52.962;6.196;2023-12-28T04:42:23;6.68;;;3.47;;
57443;SDS011;43289;52.962;6.196;2023-12-28T04:44:49;6.35;;;2.75;;
57443;SDS011;43289;52.962;6.196;2023-12-28T04:47:15;9.02;;;3.58;;
57443;SDS011;43289;52.962;6.196;2023-12-28T04:49:42;7.80;;;2.60;;
57443;SDS011;43289;52.962;6.196;2023-12-28T04:52:08;10.60;;;3.63;;
57443;SDS011;43289;52.962;6.196;2023-12-28T04:54:34;5.38;;;2.38;;
57443;SDS011;43289;52.962;6.196;2023-12-28T04:57:00;7.45;;;2.90;;
57443;SDS011;43289;52.962;6.196;2023-12-28T04:59:26;7.32;;;2.50;;
57443;SDS011;43289;52.962;6.196;2023-12-28T05:01:52;6.50;;;2.22;;
57443;SDS011;43289;52.962;6.196;2023-12-28T05:04:18;7.65;;;2.70;;
57443;SDS011;43289;52.962;6.196;2023-12-28T05:06:44;7.40;;;3.25;;
57443;SDS011;43289;52.962;6.196;2023-12-28T05:09:10;9.43;;;2.42;;
57443;SDS011;43289;52.962;6.196;2023-12-28T05:11:36;9.57;;;3.10;;
57443;SDS011;43289;52.962;6.196;2023-12-28T05:14:02;10.13;;;3.10;;
57443;SDS011;43289;52.962;6.196;2023-12-28T05:16:28;7.65;;;2.25;;
57443;SDS011;43289;52.962;6.196;2023-12-28T05:18:54;9.27;;;2.88;;
57443;SDS011;43289;52.962;6.196;2023-12-28T05:21:20;13.05;;;3.42;;
57443;SDS011;43289;52.962;6.196;2023-12-28T05:23:46;10.63;;;2.75;;
57443;SDS011;43289;52.962;6.196;2023-12-28T05:26:12;8.75;;;2.92;;
57443;SDS011;43289;52.962;6.196;2023-12-28T05:28:38;9.73;;;2.88;;
57443;SDS011;43289;52.962;6.196;2023-12-28T05:31:05;7.40;;;2.30;;
57443;SDS011;43289;52.962;6.196;2023-12-28T05:33:31;8.38;;;2.35;;
57443;SDS011;43289;52.962;6.196;2023-12-28T05:35:57;12.27;;;2.70;;
57443;SDS011;43289;52.962;6.196;2023-12-28T05:38:23;13.13;;;3.63;;
57443;SDS011;43289;52.962;6.196;2023-12-28T05:40:49;9.73;;;3.47;;
57443;SDS011;43289;52.962;6.196;2023-12-28T05:43:15;11.25;;;3.45;;
57443;SDS011;43289;52.962;6.196;2023-12-28T05:45:41;7.80;;;2.38;;
57443;SDS011;43289;52.962;6.196;2023-12-28T05:48:07;7.28;;;2.92;;
57443;SDS011;43289;52.962;6.196;2023-12-28T05:50:35;9.52;;;2.83;;
57443;SDS011;43289;52.962;6.196;2023-12-28T05:53:01;13.75;;;2.63;;
57443;SDS011;43289;52.962;6.196;2023-12-28T05:55:27;8.98;;;2.72;;
57443;SDS011;43289;52.962;6.196;2023-12-28T05:57:53;8.13;;;2.88;;
57443;SDS011;43289;52.962;6.196;2023-12-28T06:00:20;6.65;;;2.50;;
57443;SDS011;43289;52.962;6.196;2023-12-28T06:02:46;12.15;;;3.60;;
57443;SDS011;43289;52.962;6.196;2023-12-28T06:05:16;9.43;;;2.08;;
57443;SDS011;43289;52.962;6.196;2023-12-28T06:07:42;15.48;;;3.22;;
57443;SDS011;43289;52.962;6.196;2023-12-28T06:10:10;10.13;;;3.28;;
57443;SDS011;43289;52.962;6.196;2023-12-28T06:12:36;12.23;;;3.55;;
57443;SDS011;43289;52.962;6.196;2023-12-28T06:15:02;12.35;;;3.15;;
57443;SDS011;43289;52.962;6.196;2023-12-28T06:17:28;10.70;;;2.58;;
57443;SDS011;43289;52.962;6.196;2023-12-28T06:19:54;12.98;;;3.30;;
57443;SDS011;43289;52.962;6.196;2023-12-28T06:22:21;13.10;;;3.17;;
57443;SDS011;43289;52.962;6.196;2023-12-28T06:24:47;8.50;;;4.78;;
57443;SDS011;43289;52.962;6.196;2023-12-28T06:27:13;6.15;;;2.22;;
57443;SDS011;43289;52.962;6.196;2023-12-28T06:29:39;14.63;;;3.22;;
57443;SDS011;43289;52.962;6.196;2023-12-28T06:32:05;10.73;;;3.80;;
57443;SDS011;43289;52.962;6.196;2023-12-28T06:34:31;7.53;;;2.75;;
57443;SDS011;43289;52.962;6.196;2023-12-28T06:36:57;11.73;;;2.97;;
57443;SDS011;43289;52.962;6.196;2023-12-28T06:39:23;8.10;;;2.85;;
57443;SDS011;43289;52.962;6.196;2023-12-28T06:41:49;11.45;;;3.58;;
57443;SDS011;43289;52.962;6.196;2023-12-28T06:44:15;10.30;;;4.03;;
57443;SDS011;43289;52.962;6.196;2023-12-28T06:46:41;13.68;;;3.95;;
57443;SDS011;43289;52.962;6.196;2023-12-28T06:49:07;9.95;;;2.63;;
57443;SDS011;43289;52.962;6.196;2023-12-28T06:51:33;5.03;;;1.50;;
57443;SDS011;43289;52.962;6.196;2023-12-28T06:53:59;11.50;;;4.55;;
57443;SDS011;43289;52.962;6.196;2023-12-28T06:56:25;10.85;;;3.40;;
57443;SDS011;43289;52.962;6.196;2023-12-28T06:58:51;9.02;;;3.28;;
57443;SDS011;43289;52.962;6.196;2023-12-28T07:01:17;17.70;;;3.67;;
57443;SDS011;43289;52.962;6.196;2023-12-28T07:03:43;12.52;;;4.25;;
57443;SDS011;43289;52.962;6.196;2023-12-28T07:06:09;11.15;;;3.20;;
57443;SDS011;43289;52.962;6.196;2023-12-28T07:08:36;11.40;;;4.13;;
57443;SDS011;43289;52.962;6.196;2023-12-28T07:11:02;13.38;;;3.30;;
57443;SDS011;43289;52.962;6.196;2023-12-28T07:13:28;13.35;;;4.63;;
57443;SDS011;43289;52.962;6.196;2023-12-28T07:15:54;11.15;;;3.28;;
57443;SDS011;43289;52.962;6.196;2023-12-28T07:18:20;12.88;;;2.90;;
57443;SDS011;43289;52.962;6.196;2023-12-28T07:20:46;17.63;;;3.70;;
57443;SDS011;43289;52.962;6.196;2023-12-28T07:23:13;13.52;;;4.53;;
57443;SDS011;43289;52.962;6.196;2023-12-28T07:25:40;7.53;;;2.63;;
57443;SDS011;43289;52.962;6.196;2023-12-28T07:28:06;8.32;;;2.22;;
57443;SDS011;43289;52.962;6.196;2023-12-28T07:30:32;20.40;;;4.25;;
57443;SDS011;43289;52.962;6.196;2023-12-28T07:32:58;15.23;;;4.05;;
57443;SDS011;43289;52.962;6.196;2023-12-28T07:35:24;12.43;;;2.97;;
57443;SDS011;43289;52.962;6.196;2023-12-28T07:37:50;17.45;;;4.35;;
57443;SDS011;43289;52.962;6.196;2023-12-28T07:40:16;11.70;;;3.72;;
57443;SDS011;43289;52.962;6.196;2023-12-28T07:42:42;12.93;;;3.80;;
57443;SDS011;43289;52.962;6.196;2023-12-28T07:45:08;7.25;;;2.17;;
57443;SDS011;43289;52.962;6.196;2023-12-28T07:47:35;18.10;;;3.97;;
57443;SDS011;43289;52.962;6.196;2023-12-28T07:50:01;16.35;;;4.22;;
57443;SDS011;43289;52.962;6.196;2023-12-28T07:52:28;19.67;;;4.13;;
57443;SDS011;43289;52.962;6.196;2023-12-28T07:54:54;12.07;;;3.60;;
57443;SDS011;43289;52.962;6.196;2023-12-28T07:57:20;9.07;;;2.80;;
57443;SDS011;43289;52.962;6.196;2023-12-28T07:59:46;11.32;;;3.70;;
57443;SDS011;43289;52.962;6.196;2023-12-28T08:02:12;13.98;;;3.75;;
57443;SDS011;43289;52.962;6.196;2023-12-28T08:04:39;18.85;;;3.20;;
57443;SDS011;43289;52.962;6.196;2023-12-28T08:07:05;18.63;;;5.95;;
57443;SDS011;43289;52.962;6.196;2023-12-28T08:09:32;11.60;;;3.28;;
57443;SDS011;43289;52.962;6.196;2023-12-28T08:11:58;15.20;;;4.55;;
57443;SDS011;43289;52.962;6.196;2023-12-28T08:14:24;10.82;;;3.58;;
57443;SDS011;43289;52.962;6.196;2023-12-28T08:16:50;15.77;;;3.90;;
57443;SDS011;43289;52.962;6.196;2023-12-28T08:19:17;15.07;;;3.60;;
57443;SDS011;43289;52.962;6.196;2023-12-28T08:21:43;24.05;;;5.15;;
57443;SDS011;43289;52.962;6.196;2023-12-28T08:24:09;17.20;;;3.88;;
57443;SDS011;43289;52.962;6.196;2023-12-28T08:26:35;17.65;;;5.13;;
57443;SDS011;43289;52.962;6.196;2023-12-28T08:29:01;16.25;;;4.68;;
57443;SDS011;43289;52.962;6.196;2023-12-28T08:31:28;15.88;;;4.75;;
57443;SDS011;43289;52.962;6.196;2023-12-28T08:33:55;12.52;;;3.47;;
57443;SDS011;43289;52.962;6.196;2023-12-28T08:36:21;17.33;;;4.22;;
57443;SDS011;43289;52.962;6.196;2023-12-28T08:38:47;14.60;;;5.00;;
57443;SDS011;43289;52.962;6.196;2023-12-28T08:41:20;14.68;;;6.57;;
57443;SDS011;43289;52.962;6.196;2023-12-28T08:43:46;16.40;;;4.13;;
57443;SDS011;43289;52.962;6.196;2023-12-28T08:46:13;15.43;;;3.40;;
57443;SDS011;43289;52.962;6.196;2023-12-28T08:48:42;19.83;;;5.47;;
57443;SDS011;43289;52.962;6.196;2023-12-28T08:51:09;14.88;;;4.00;;
57443;SDS011;43289;52.962;6.196;2023-12-28T08:53:36;19.05;;;5.25;;
57443;SDS011;43289;52.962;6.196;2023-12-28T08:56:03;15.57;;;4.57;;
57443;SDS011;43289;52.962;6.196;2023-12-28T08:58:38;16.77;;;4.78;;
57443;SDS011;43289;52.962;6.196;2023-12-28T09:01:04;11.50;;;2.80;;
57443;SDS011;43289;52.962;6.196;2023-12-28T09:03:30;17.13;;;4.85;;
57443;SDS011;43289;52.962;6.196;2023-12-28T09:05:56;15.98;;;4.38;;
57443;SDS011;43289;52.962;6.196;2023-12-28T09:08:22;20.75;;;5.00;;
57443;SDS011;43289;52.962;6.196;2023-12-28T09:10:48;21.65;;;5.15;;
57443;SDS011;43289;52.962;6.196;2023-12-28T09:13:14;20.60;;;6.25;;
57443;SDS011;43289;52.962;6.196;2023-12-28T09:15:41;18.98;;;4.32;;
57443;SDS011;43289;52.962;6.196;2023-12-28T09:18:07;14.32;;;4.00;;
57443;SDS011;43289;52.962;6.196;2023-12-28T09:20:33;15.00;;;4.00;;
57443;SDS011;43289;52.962;6.196;2023-12-28T09:23:00;14.15;;;4.47;;
57443;SDS011;43289;52.962;6.196;2023-12-28T09:25:26;13.65;;;3.67;;
57443;SDS011;43289;52.962;6.196;2023-12-28T09:27:52;19.25;;;5.32;;
57443;SDS011;43289;52.962;6.196;2023-12-28T09:30:18;18.88;;;4.65;;
57443;SDS011;43289;52.962;6.196;2023-12-28T09:32:44;18.58;;;3.83;;
57443;SDS011;43289;52.962;6.196;2023-12-28T09:35:10;15.88;;;5.43;;
57443;SDS011;43289;52.962;6.196;2023-12-28T09:37:37;15.93;;;4.05;;
57443;SDS011;43289;52.962;6.196;2023-12-28T09:40:03;20.75;;;4.85;;
57443;SDS011;43289;52.962;6.196;2023-12-28T09:42:31;16.55;;;4.95;;
57443;SDS011;43289;52.962;6.196;2023-12-28T09:44:58;10.05;;;3.50;;
57443;SDS011;43289;52.962;6.196;2023-12-28T09:47:24;17.20;;;3.92;;
57443;SDS011;43289;52.962;6.196;2023-12-28T09:49:50;5.63;;;2.42;;
57443;SDS011;43289;52.962;6.196;2023-12-28T09:52:16;15.95;;;3.67;;
57443;SDS011;43289;52.962;6.196;2023-12-28T09:54:42;17.52;;;4.97;;
57443;SDS011;43289;52.962;6.196;2023-12-28T09:57:09;14.73;;;4.93;;
57443;SDS011;43289;52.962;6.196;2023-12-28T09:59:35;18.80;;;4.90;;
57443;SDS011;43289;52.962;6.196;2023-12-28T10:02:01;17.80;;;4.68;;
57443;SDS011;43289;52.962;6.196;2023-12-28T10:04:28;17.17;;;4.05;;
57443;SDS011;43289;52.962;6.196;2023-12-28T10:06:54;15.57;;;4.22;;
57443;SDS011;43289;52.962;6.196;2023-12-28T10:09:21;17.27;;;3.88;;
57443;SDS011;43289;52.962;6.196;2023-12-28T10:11:47;13.20;;;3.88;;
57443;SDS011;43289;52.962;6.196;2023-12-28T10:14:13;12.68;;;4.18;;
57443;SDS011;43289;52.962;6.196;2023-12-28T10:16:40;13.77;;;4.18;;
57443;SDS011;43289;52.962;6.196;2023-12-28T10:19:06;15.52;;;4.70;;
57443;SDS011;43289;52.962;6.196;2023-12-28T10:21:33;17.83;;;4.43;;
57443;SDS011;43289;52.962;6.196;2023-12-28T10:23:59;13.35;;;3.30;;
57443;SDS011;43289;52.962;6.196;2023-12-28T10:26:25;20.52;;;5.03;;
57443;SDS011;43289;52.962;6.196;2023-12-28T10:28:59;19.85;;;3.80;;
57443;SDS011;43289;52.962;6.196;2023-12-28T10:31:28;10.02;;;3.42;;
57443;SDS011;43289;52.962;6.196;2023-12-28T10:33:57;10.45;;;3.60;;
57443;SDS011;43289;52.962;6.196;2023-12-28T10:36:24;3.90;;;1.60;;
57443;SDS011;43289;52.962;6.196;2023-12-28T10:38:53;14.75;;;3.75;;
57443;SDS011;43289;52.962;6.196;2023-12-28T10:41:19;17.88;;;4.28;;
57443;SDS011;43289;52.962;6.196;2023-12-28T10:43:46;15.75;;;3.65;;
57443;SDS011;43289;52.962;6.196;2023-12-28T10:46:37;12.48;;;3.08;;
57443;SDS011;43289;52.962;6.196;2023-12-28T10:49:09;9.82;;;3.00;;
57443;SDS011;43289;52.962;6.196;2023-12-28T10:51:37;19.00;;;4.65;;
57443;SDS011;43289;52.962;6.196;2023-12-28T10:54:10;15.38;;;3.97;;
57443;SDS011;43289;52.962;6.196;2023-12-28T10:56:44;16.88;;;5.68;;
57443;SDS011;43289;52.962;6.196;2023-12-28T10:59:24;18.15;;;4.55;;
57443;SDS011;43289;52.962;6.196;2023-12-28T11:01:54;19.02;;;4.50;;
57443;SDS011;43289;52.962;6.196;2023-12-28T11:04:26;17.70;;;3.85;;
57443;SDS011;43289;52.962;6.196;2023-12-28T11:06:55;14.88;;;4.75;;
57443;SDS011;43289;52.962;6.196;2023-12-28T11:09:22;16.30;;;5.22;;
57443;SDS011;43289;52.962;6.196;2023-12-28T11:11:49;17.55;;;5.57;;
57443;SDS011;43289;52.962;6.196;2023-12-28T11:14:17;14.45;;;4.10;;
57443;SDS011;43289;52.962;6.196;2023-12-28T11:16:43;17.02;;;4.82;;
57443;SDS011;43289;52.962;6.196;2023-12-28T11:19:10;14.05;;;4.75;;
57443;SDS011;43289;52.962;6.196;2023-12-28T11:21:37;19.23;;;5.25;;
57443;SDS011;43289;52.962;6.196;2023-12-28T11:24:03;11.02;;;3.95;;
57443;SDS011;43289;52.962;6.196;2023-12-28T11:26:29;11.20;;;3.63;;
57443;SDS011;43289;52.962;6.196;2023-12-28T11:29:02;18.55;;;5.85;;
57443;SDS011;43289;52.962;6.196;2023-12-28T11:31:31;13.40;;;3.70;;
57443;SDS011;43289;52.962;6.196;2023-12-28T11:33:59;20.77;;;4.80;;
57443;SDS011;43289;52.962;6.196;2023-12-28T11:36:26;11.93;;;3.20;;
57443;SDS011;43289;52.962;6.196;2023-12-28T11:39:00;13.02;;;3.38;;
57443;SDS011;43289;52.962;6.196;2023-12-28T11:41:27;12.60;;;3.90;;
57443;SDS011;43289;52.962;6.196;2023-12-28T11:43:53;11.55;;;3.75;;
57443;SDS011;43289;52.962;6.196;2023-12-28T11:46:22;18.33;;;4.20;;
57443;SDS011;43289;52.962;6.196;2023-12-28T11:48:49;12.80;;;5.03;;
57443;SDS011;43289;52.962;6.196;2023-12-28T11:51:15;14.80;;;4.88;;
57443;SDS011;43289;52.962;6.196;2023-12-28T11:53:42;13.48;;;4.13;;
57443;SDS011;43289;52.962;6.196;2023-12-28T11:56:09;11.13;;;3.78;;
57443;SDS011;43289;52.962;6.196;2023-12-28T11:58:36;12.70;;;3.67;;
57443;SDS011;43289;52.962;6.196;2023-12-28T12:01:02;14.50;;;4.82;;
57443;SDS011;43289;52.962;6.196;2023-12-28T12:03:29;16.77;;;4.88;;
57443;SDS011;43289;52.962;6.196;2023-12-28T12:05:55;25.67;;;4.55;;
57443;SDS011;43289;52.962;6.196;2023-12-28T12:08:22;17.55;;;4.80;;
57443;SDS011;43289;52.962;6.196;2023-12-28T12:10:59;17.35;;;4.25;;
57443;SDS011;43289;52.962;6.196;2023-12-28T12:13:25;16.50;;;5.20;;
57443;SDS011;43289;52.962;6.196;2023-12-28T12:15:51;19.40;;;5.30;;
57443;SDS011;43289;52.962;6.196;2023-12-28T12:18:17;12.30;;;4.07;;
57443;SDS011;43289;52.962;6.196;2023-12-28T12:20:43;13.23;;;3.97;;
57443;SDS011;43289;52.962;6.196;2023-12-28T12:23:10;17.83;;;4.82;;
57443;SDS011;43289;52.962;6.196;2023-12-28T12:25:38;17.02;;;4.13;;
57443;SDS011;43289;52.962;6.196;2023-12-28T12:28:04;18.90;;;4.95;;
57443;SDS011;43289;52.962;6.196;2023-12-28T12:30:30;18.33;;;4.25;;
57443;SDS011;43289;52.962;6.196;2023-12-28T12:32:56;20.55;;;5.28;;
57443;SDS011;43289;52.962;6.196;2023-12-28T12:35:22;13.02;;;2.97;;
57443;SDS011;43289;52.962;6.196;2023-12-28T12:37:49;18.27;;;5.47;;
57443;SDS011;43289;52.962;6.196;2023-12-28T12:40:16;21.67;;;5.20;;
57443;SDS011;43289;52.962;6.196;2023-12-28T12:42:51;18.17;;;3.72;;
57443;SDS011;43289;52.962;6.196;2023-12-28T12:45:18;22.58;;;5.10;;
57443;SDS011;43289;52.962;6.196;2023-12-28T12:47:44;14.80;;;4.15;;
57443;SDS011;43289;52.962;6.196;2023-12-28T12:50:11;12.27;;;2.83;;
57443;SDS011;43289;52.962;6.196;2023-12-28T12:52:38;20.48;;;5.32;;
57443;SDS011;43289;52.962;6.196;2023-12-28T12:55:04;16.33;;;4.05;;
57443;SDS011;43289;52.962;6.196;2023-12-28T12:57:30;23.27;;;5.32;;
57443;SDS011;43289;52.962;6.196;2023-12-28T12:59:56;7.75;;;2.45;;
57443;SDS011;43289;52.962;6.196;2023-12-28T13:02:23;19.10;;;3.88;;
57443;SDS011;43289;52.962;6.196;2023-12-28T13:04:53;15.90;;;4.32;;
57443;SDS011;43289;52.962;6.196;2023-12-28T13:07:19;16.13;;;5.05;;
57443;SDS011;43289;52.962;6.196;2023-12-28T13:09:45;14.80;;;4.38;;
57443;SDS011;43289;52.962;6.196;2023-12-28T13:12:11;17.90;;;4.40;;
57443;SDS011;43289;52.962;6.196;2023-12-28T13:14:37;13.30;;;4.28;;
57443;SDS011;43289;52.962;6.196;2023-12-28T13:17:03;8.68;;;3.20;;
57443;SDS011;43289;52.962;6.196;2023-12-28T13:19:29;21.60;;;4.72;;
57443;SDS011;43289;52.962;6.196;2023-12-28T13:21:56;21.77;;;5.68;;
57443;SDS011;43289;52.962;6.196;2023-12-28T13:24:22;9.02;;;2.80;;
57443;SDS011;43289;52.962;6.196;2023-12-28T13:26:48;17.42;;;4.03;;
57443;SDS011;43289;52.962;6.196;2023-12-28T13:29:14;14.55;;;4.10;;
57443;SDS011;43289;52.962;6.196;2023-12-28T13:31:40;16.25;;;4.55;;
57443;SDS011;43289;52.962;6.196;2023-12-28T13:34:06;16.80;;;4.35;;
57443;SDS011;43289;52.962;6.196;2023-12-28T13:36:32;18.92;;;6.25;;
57443;SDS011;43289;52.962;6.196;2023-12-28T13:38:59;18.30;;;5.32;;
57443;SDS011;43289;52.962;6.196;2023-12-28T13:41:25;16.52;;;4.65;;
57443;SDS011;43289;52.962;6.196;2023-12-28T13:43:51;19.83;;;4.18;;
57443;SDS011;43289;52.962;6.196;2023-12-28T13:46:24;24.35;;;4.95;;
57443;SDS011;43289;52.962;6.196;2023-12-28T13:48:50;14.48;;;3.92;;
57443;SDS011;43289;52.962;6.196;2023-12-28T13:51:16;14.57;;;5.25;;
57443;SDS011;43289;52.962;6.196;2023-12-28T13:53:42;21.00;;;4.88;;
57443;SDS011;43289;52.962;6.196;2023-12-28T13:56:08;16.08;;;3.42;;
57443;SDS011;43289;52.962;6.196;2023-12-28T13:58:34;18.23;;;5.32;;
57443;SDS011;43289;52.962;6.196;2023-12-28T14:01:00;14.10;;;4.93;;
57443;SDS011;43289;52.962;6.196;2023-12-28T14:03:28;15.60;;;3.70;;
57443;SDS011;43289;52.962;6.196;2023-12-28T14:05:54;16.50;;;4.25;;
57443;SDS011;43289;52.962;6.196;2023-12-28T14:08:20;13.27;;;4.25;;
57443;SDS011;43289;52.962;6.196;2023-12-28T14:10:46;16.90;;;4.43;;
57443;SDS011;43289;52.962;6.196;2023-12-28T14:13:12;17.33;;;4.80;;
57443;SDS011;43289;52.962;6.196;2023-12-28T14:15:40;19.60;;;4.60;;
57443;SDS011;43289;52.962;6.196;2023-12-28T14:18:06;23.35;;;5.50;;
57443;SDS011;43289;52.962;6.196;2023-12-28T14:20:34;20.52;;;4.07;;
57443;SDS011;43289;52.962;6.196;2023-12-28T14:23:00;20.73;;;5.00;;
57443;SDS011;43289;52.962;6.196;2023-12-28T14:25:26;18.65;;;5.38;;
57443;SDS011;43289;52.962;6.196;2023-12-28T14:27:53;14.57;;;3.42;;
57443;SDS011;43289;52.962;6.196;2023-12-28T14:30:19;11.70;;;4.22;;
57443;SDS011;43289;52.962;6.196;2023-12-28T14:32:45;18.10;;;5.05;;
57443;SDS011;43289;52.962;6.196;2023-12-28T14:35:12;12.60;;;3.75;;
57443;SDS011;43289;52.962;6.196;2023-12-28T14:37:40;15.20;;;5.47;;
57443;SDS011;43289;52.962;6.196;2023-12-28T14:40:07;19.88;;;5.20;;